createdAt,value
2022-11-20T00:00:08.326Z,4.57
2022-11-20T00:02:41.521Z,4.75
2022-11-20T00:05:13.093Z,6.28
2022-11-20T00:07:43.543Z,4.55
2022-11-20T00:10:14.235Z,5.05
2022-11-20T00:12:44.696Z,4.57
2022-11-20T00:15:15.302Z,4.18
2022-11-20T00:17:48.399Z,3.95
2022-11-20T00:20:19.228Z,4.95
2022-11-20T00:22:49.764Z,4.55
2022-11-20T00:25:20.810Z,5.25
2022-11-20T00:27:51.313Z,4.55
2022-11-20T00:30:22.557Z,4.50
2022-11-20T00:32:55.739Z,4.03
2022-11-20T00:35:26.560Z,4.60
2022-11-20T00:37:57.051Z,4.72
2022-11-20T00:40:27.598Z,4.78
2022-11-20T00:42:58.102Z,4.20
2022-11-20T00:45:28.654Z,4.38
2022-11-20T00:48:01.774Z,3.92
2022-11-20T00:50:32.368Z,3.92
2022-11-20T00:53:02.821Z,3.95
2022-11-20T00:55:33.377Z,4.03
2022-11-20T00:58:04.771Z,3.58
2022-11-20T01:00:35.517Z,3.65
2022-11-20T01:03:08.599Z,3.17
2022-11-20T01:05:39.548Z,3.88
2022-11-20T01:08:10.010Z,4.47
2022-11-20T01:10:41.295Z,3.35
2022-11-20T01:13:25.738Z,4.10
2022-11-20T01:15:56.602Z,3.60
2022-11-20T01:18:29.682Z,3.35
2022-11-20T01:21:03.756Z,3.55
2022-11-20T01:23:38.844Z,3.58
2022-11-20T01:26:13.034Z,3.75
2022-11-20T01:28:44.276Z,3.55
2022-11-20T01:31:17.153Z,3.88
2022-11-20T01:33:52.593Z,3.50
2022-11-20T01:36:25.112Z,3.72
2022-11-20T01:38:56.435Z,3.00
2022-11-20T01:41:40.349Z,3.47
2022-11-20T01:44:11.228Z,3.45
2022-11-20T01:46:46.649Z,3.38
2022-11-20T01:49:24.265Z,3.85
2022-11-20T01:51:58.096Z,3.17
2022-11-20T01:54:33.783Z,3.25
2022-11-20T01:57:05.920Z,3.80
2022-11-20T01:59:37.570Z,3.50
2022-11-20T02:02:08.292Z,4.10
2022-11-20T02:04:41.759Z,4.07
2022-11-20T02:07:12.865Z,3.83
2022-11-20T02:09:43.353Z,4.05
2022-11-20T02:12:34.491Z,3.45
2022-11-20T02:15:26.190Z,3.47
2022-11-20T02:17:59.746Z,3.03
2022-11-20T02:20:33.279Z,4.05
2022-11-20T02:23:08.821Z,3.08
2022-11-20T02:25:44.031Z,4.15
2022-11-20T02:28:14.745Z,3.80
2022-11-20T02:30:45.166Z,3.38
2022-11-20T02:33:16.402Z,3.92
2022-11-20T02:35:49.656Z,3.50
2022-11-20T02:38:20.729Z,3.30
2022-11-20T02:40:55.706Z,3.28
2022-11-20T02:43:27.072Z,3.92
2022-11-20T02:45:57.840Z,3.25
2022-11-20T02:48:33.560Z,3.38
2022-11-20T02:51:04.809Z,3.40
2022-11-20T02:53:35.434Z,3.47
2022-11-20T02:56:09.585Z,3.33
2022-11-20T02:58:40.114Z,3.30
2022-11-20T03:01:10.820Z,2.95
2022-11-20T03:03:41.453Z,3.58
2022-11-20T03:06:12.220Z,4.38
2022-11-20T03:08:42.860Z,2.95
2022-11-20T03:11:16.060Z,2.90
2022-11-20T03:13:47.005Z,3.17
2022-11-20T03:16:20.147Z,2.70
2022-11-20T03:18:50.896Z,3.88
2022-11-20T03:21:21.488Z,3.15
2022-11-20T03:23:51.983Z,3.13
2022-11-20T03:26:28.311Z,2.72
2022-11-20T03:29:00.837Z,2.38
2022-11-20T03:31:33.339Z,3.47
2022-11-20T03:34:04.499Z,2.80
2022-11-20T03:36:36.146Z,2.88
2022-11-20T03:39:06.924Z,2.80
2022-11-20T03:41:44.797Z,2.80
2022-11-20T03:44:16.266Z,2.88
2022-11-20T03:46:46.887Z,2.55
2022-11-20T03:49:17.415Z,2.65
2022-11-20T03:51:48.619Z,2.92
2022-11-20T03:54:19.218Z,2.80
2022-11-20T03:56:52.368Z,3.15
2022-11-20T03:59:23.203Z,2.97
2022-11-20T04:01:53.994Z,2.72
2022-11-20T04:04:24.580Z,2.30
2022-11-20T04:06:55.126Z,2.60
2022-11-20T04:09:25.704Z,2.60
2022-11-20T04:11:58.857Z,3.50
2022-11-20T04:14:29.602Z,2.78
2022-11-20T04:17:00.185Z,2.50
2022-11-20T04:19:30.699Z,3.05
2022-11-20T04:22:01.198Z,2.72
2022-11-20T04:24:31.754Z,2.92
2022-11-20T04:27:04.906Z,2.60
2022-11-20T04:29:35.485Z,2.72
2022-11-20T04:32:06.182Z,5.85
2022-11-20T04:34:36.801Z,5.80
2022-11-20T04:37:07.459Z,10.75
2022-11-20T04:39:38.117Z,6.72
2022-11-20T04:42:25.871Z,4.60
2022-11-20T04:44:56.319Z,4.88
2022-11-20T04:47:27.643Z,3.10
2022-11-20T04:49:58.264Z,2.80
2022-11-20T04:52:28.999Z,3.90
2022-11-20T04:54:59.614Z,2.38
2022-11-20T04:57:32.717Z,2.30
2022-11-20T05:00:03.206Z,3.08
2022-11-20T05:02:35.360Z,3.13
2022-11-20T05:05:05.885Z,2.50
2022-11-20T05:07:36.363Z,3.13
2022-11-20T05:10:07.599Z,2.75
2022-11-20T05:12:40.845Z,2.65
2022-11-20T05:15:12.327Z,2.53
2022-11-20T05:17:42.997Z,2.63
2022-11-20T05:20:15.236Z,2.22
2022-11-20T05:22:46.203Z,2.25
2022-11-20T05:25:16.769Z,2.47
2022-11-20T05:27:49.926Z,2.22
2022-11-20T05:30:20.559Z,2.60
2022-11-20T05:32:51.127Z,2.58
2022-11-20T05:35:21.659Z,1.90
2022-11-20T05:37:52.243Z,2.70
2022-11-20T05:40:22.958Z,2.40
2022-11-20T05:42:56.213Z,2.40
2022-11-20T05:45:26.822Z,1.90
2022-11-20T05:47:57.647Z,2.35
2022-11-20T05:50:28.161Z,2.58
2022-11-20T05:52:58.714Z,2.25
2022-11-20T05:55:29.265Z,1.88
2022-11-20T05:58:02.411Z,2.15
2022-11-20T06:00:32.902Z,2.20
2022-11-20T06:03:03.494Z,2.08
2022-11-20T06:05:34.103Z,1.92
2022-11-20T06:08:05.340Z,2.40
2022-11-20T06:10:35.781Z,2.08
2022-11-20T06:13:08.905Z,2.20
2022-11-20T06:15:39.833Z,2.10
2022-11-20T06:18:10.440Z,2.05
2022-11-20T06:20:42.185Z,2.08
2022-11-20T06:23:12.920Z,2.63
2022-11-20T06:25:43.987Z,2.35
2022-11-20T06:28:17.223Z,2.00
2022-11-20T06:30:49.835Z,2.45
2022-11-20T06:33:20.357Z,2.70
2022-11-20T06:35:53.315Z,2.10
2022-11-20T06:38:27.736Z,2.28
2022-11-20T06:40:58.734Z,2.88
2022-11-20T06:43:33.501Z,2.33
2022-11-20T06:46:04.070Z,3.13
2022-11-20T06:48:35.003Z,2.22
2022-11-20T06:51:07.708Z,2.80
2022-11-20T06:53:38.585Z,2.15
2022-11-20T06:56:10.562Z,2.17
2022-11-20T06:58:44.004Z,2.00
2022-11-20T07:01:16.422Z,2.45
2022-11-20T07:03:51.380Z,2.20
2022-11-20T07:06:24.554Z,2.70
2022-11-20T07:08:55.808Z,1.85
2022-11-20T07:11:26.582Z,2.13
2022-11-20T07:14:01.124Z,2.53
2022-11-20T07:16:31.672Z,1.75
2022-11-20T07:19:02.460Z,2.55
2022-11-20T07:21:32.951Z,2.00
2022-11-20T07:24:03.548Z,1.90
2022-11-20T07:26:33.988Z,1.95
2022-11-20T07:29:07.324Z,2.15
2022-11-20T07:31:37.923Z,1.80
2022-11-20T07:34:08.533Z,2.55
2022-11-20T07:36:39.140Z,2.40
2022-11-20T07:39:09.820Z,2.13
2022-11-20T07:41:40.382Z,2.83
2022-11-20T07:44:13.585Z,1.90
2022-11-20T07:46:44.025Z,1.83
2022-11-20T07:49:14.792Z,2.60
2022-11-20T07:51:46.997Z,3.50
2022-11-20T07:54:21.007Z,3.13
2022-11-20T07:56:51.894Z,3.00
2022-11-20T07:59:25.100Z,3.60
2022-11-20T08:01:55.741Z,3.50
2022-11-20T08:04:26.235Z,3.58
2022-11-20T08:06:57.562Z,4.43
2022-11-20T08:09:28.272Z,4.85
2022-11-20T08:12:11.097Z,4.28
2022-11-20T08:14:44.197Z,4.95
2022-11-20T08:17:14.746Z,5.22
2022-11-20T08:19:45.239Z,5.32
2022-11-20T08:22:15.673Z,5.43
2022-11-20T08:24:46.199Z,5.15
2022-11-20T08:27:16.693Z,5.40
2022-11-20T08:29:49.849Z,5.32
2022-11-20T08:32:20.432Z,6.10
2022-11-20T08:34:51.001Z,5.85
2022-11-20T08:37:21.549Z,5.97
2022-11-20T08:39:52.020Z,5.78
2022-11-20T08:42:22.765Z,6.00
2022-11-20T08:44:55.915Z,6.97
2022-11-20T08:47:26.480Z,6.25
2022-11-20T08:49:56.958Z,7.63
2022-11-20T08:52:27.560Z,7.78
2022-11-20T08:54:58.001Z,7.20
2022-11-20T08:57:28.521Z,7.68
2022-11-20T09:00:06.310Z,7.70
2022-11-20T09:02:37.308Z,7.68
2022-11-20T09:05:08.779Z,7.50
2022-11-20T09:07:39.405Z,7.97
2022-11-20T09:13:02.780Z,7.28
2022-11-20T09:15:36.261Z,8.18
2022-11-20T09:18:07.784Z,8.70
2022-11-20T09:20:38.333Z,8.50
2022-11-20T09:23:08.850Z,9.70
2022-11-20T09:25:39.348Z,9.07
2022-11-20T09:28:09.906Z,8.80
2022-11-20T09:30:43.023Z,8.50
2022-11-20T09:33:13.768Z,9.13
2022-11-20T09:35:44.736Z,9.00
2022-11-20T09:38:15.767Z,9.25
2022-11-20T09:40:54.401Z,9.77
2022-11-20T09:43:37.114Z,10.93
2022-11-20T09:46:24.952Z,9.68
2022-11-20T09:49:13.754Z,11.25
2022-11-20T09:51:55.809Z,10.05
2022-11-20T09:54:30.563Z,10.02
2022-11-20T09:57:04.365Z,9.73
2022-11-20T09:59:42.233Z,9.15
2022-11-20T10:02:32.046Z,8.95
2022-11-20T10:05:08.164Z,8.93
2022-11-20T10:07:47.172Z,9.73
2022-11-20T10:10:26.391Z,9.57
2022-11-20T10:13:09.412Z,8.10
2022-11-20T10:15:50.405Z,8.25
2022-11-20T10:18:35.970Z,7.47
2022-11-20T10:21:17.256Z,7.78
2022-11-20T10:24:11.537Z,7.75
2022-11-20T10:26:52.376Z,7.60
2022-11-20T10:29:28.395Z,7.65
2022-11-20T10:32:03.971Z,7.68
2022-11-20T10:37:19.078Z,7.95
2022-11-20T10:39:58.700Z,7.15
2022-11-20T10:42:36.646Z,7.10
2022-11-20T10:45:35.493Z,7.40
2022-11-20T10:48:17.800Z,8.80
2022-11-20T10:51:26.385Z,8.52
2022-11-20T10:54:09.804Z,9.63
2022-11-20T10:56:49.893Z,9.63
2022-11-20T10:59:45.660Z,8.43
2022-11-20T11:02:24.027Z,8.80
2022-11-20T11:04:55.616Z,8.52
2022-11-20T11:07:34.708Z,8.43
2022-11-20T11:10:05.508Z,8.07
2022-11-20T11:12:36.050Z,8.40
2022-11-20T11:15:07.099Z,7.80
2022-11-20T11:17:38.467Z,8.38
2022-11-20T11:20:20.921Z,8.30
2022-11-20T11:22:56.342Z,8.43
2022-11-20T11:25:30.406Z,8.20
2022-11-20T11:28:03.556Z,8.15
2022-11-20T11:30:45.916Z,9.00
2022-11-20T11:33:23.783Z,8.25
2022-11-20T11:35:58.368Z,8.10
2022-11-20T11:38:40.002Z,9.27
2022-11-20T11:41:14.711Z,8.07
2022-11-20T11:44:08.516Z,9.52
2022-11-20T11:46:40.818Z,9.65
2022-11-20T11:49:21.862Z,9.48
2022-11-20T11:52:03.467Z,8.73
2022-11-20T11:54:42.559Z,8.90
2022-11-20T11:57:18.373Z,9.18
2022-11-20T12:00:01.937Z,9.70
2022-11-20T12:02:42.009Z,9.50
2022-11-20T12:05:23.138Z,9.13
2022-11-20T12:07:59.485Z,9.30
2022-11-20T12:10:45.721Z,8.93
2022-11-20T12:13:30.224Z,9.30
2022-11-20T12:16:01.139Z,9.30
2022-11-20T12:18:33.813Z,8.82
2022-11-20T12:21:17.151Z,7.72
2022-11-20T12:24:02.925Z,7.97
2022-11-20T12:29:28.239Z,7.22
2022-11-20T12:32:22.868Z,8.25
2022-11-20T12:35:11.130Z,8.20
2022-11-20T12:37:53.499Z,8.18
2022-11-20T12:40:36.847Z,8.20
2022-11-20T12:43:38.679Z,8.43
2022-11-20T12:46:22.724Z,8.85
2022-11-20T12:49:24.510Z,9.43
2022-11-20T12:52:27.734Z,9.25
2022-11-20T12:55:28.199Z,9.65
2022-11-20T12:58:05.667Z,10.38
2022-11-20T13:00:45.752Z,10.75
2022-11-20T13:03:52.154Z,11.60
2022-11-20T13:08:57.718Z,10.65
2022-11-20T13:11:36.514Z,15.27
2022-11-20T13:14:17.769Z,9.95
2022-11-20T13:17:00.907Z,9.77
2022-11-20T13:19:36.087Z,10.52
2022-11-20T13:22:06.567Z,10.13
2022-11-20T13:24:37.158Z,10.60
2022-11-20T13:27:25.389Z,9.88
2022-11-20T13:30:18.472Z,9.68
2022-11-20T13:33:01.180Z,10.65
2022-11-20T13:35:34.803Z,9.80
2022-11-20T13:38:11.237Z,9.85
2022-11-20T13:40:54.559Z,9.88
2022-11-20T13:43:37.834Z,9.70
2022-11-20T13:46:10.831Z,11.27
2022-11-20T13:48:47.616Z,14.27
2022-11-20T13:51:33.267Z,15.63
2022-11-20T13:54:40.056Z,14.23
2022-11-20T13:57:27.588Z,14.20
2022-11-20T14:00:02.631Z,14.02
2022-11-20T14:02:41.598Z,20.35
2022-11-20T14:05:24.209Z,22.20
2022-11-20T14:07:56.671Z,22.75
2022-11-20T14:10:32.128Z,19.17
2022-11-20T14:13:13.911Z,18.40
2022-11-20T14:15:45.205Z,16.20
2022-11-20T14:18:18.240Z,16.60
2022-11-20T14:20:51.571Z,18.05
2022-11-20T14:23:30.299Z,16.75
2022-11-20T14:26:01.532Z,15.68
2022-11-20T14:28:33.790Z,15.48
2022-11-20T14:31:04.522Z,15.38
2022-11-20T14:33:37.316Z,13.13
2022-11-20T14:36:20.609Z,12.45
2022-11-20T14:38:51.536Z,12.88
2022-11-20T14:41:24.381Z,12.00
2022-11-20T14:44:00.627Z,14.95
2022-11-20T14:46:34.136Z,14.00
2022-11-20T14:49:07.112Z,13.82
2022-11-20T14:51:42.949Z,13.40
2022-11-20T14:54:14.885Z,15.00
2022-11-20T14:56:45.704Z,15.18
2022-11-20T14:59:28.256Z,14.88
2022-11-20T15:02:01.061Z,13.88
2022-11-20T15:04:31.797Z,14.85
2022-11-20T15:07:04.963Z,15.15
2022-11-20T15:09:35.682Z,18.05
2022-11-20T15:12:07.662Z,16.60
2022-11-20T15:14:40.780Z,15.82
2022-11-20T15:17:15.728Z,15.00
2022-11-20T15:19:46.390Z,19.77
2022-11-20T15:22:20.271Z,28.23
2022-11-20T15:24:50.962Z,30.40
2022-11-20T15:27:22.016Z,24.05
2022-11-20T15:29:52.905Z,21.83
2022-11-20T15:32:23.654Z,25.05
2022-11-20T15:34:54.268Z,24.60
2022-11-20T15:37:30.080Z,23.05
2022-11-20T15:40:01.019Z,18.77
2022-11-20T15:42:31.458Z,13.50
2022-11-20T15:45:09.784Z,18.60
2022-11-20T15:47:40.558Z,15.20
2022-11-20T15:50:18.100Z,9.60
2022-11-20T15:52:51.948Z,7.72
2022-11-20T15:55:22.740Z,6.65
2022-11-20T15:57:56.243Z,9.80
2022-11-20T16:00:27.199Z,8.70
2022-11-20T16:02:57.764Z,9.98
2022-11-20T16:05:31.651Z,10.43
2022-11-20T16:08:09.998Z,11.15
2022-11-20T16:10:43.119Z,10.32
2022-11-20T16:13:30.844Z,12.52
2022-11-20T16:16:06.207Z,13.15
2022-11-20T16:18:37.241Z,12.63
2022-11-20T16:21:08.063Z,14.27
2022-11-20T16:23:41.199Z,16.42
2022-11-20T16:26:15.544Z,13.88
2022-11-20T16:28:46.150Z,14.93
2022-11-20T16:31:18.603Z,16.50
2022-11-20T16:33:53.948Z,15.25
2022-11-20T16:39:00.618Z,15.07
2022-11-20T16:41:32.526Z,13.15
2022-11-20T16:44:04.977Z,12.63
2022-11-20T16:46:36.505Z,10.48
2022-11-20T16:49:09.448Z,9.50
2022-11-20T16:51:40.521Z,10.13
2022-11-20T16:54:18.063Z,10.77
2022-11-20T16:56:52.145Z,9.75
2022-11-20T16:59:22.677Z,9.50
2022-11-20T17:01:53.394Z,10.85
2022-11-20T17:04:24.141Z,11.52
2022-11-20T17:06:55.066Z,12.65
2022-11-20T17:09:28.283Z,15.00
2022-11-20T17:11:58.978Z,17.20
2022-11-20T17:14:29.703Z,13.25
2022-11-20T17:17:00.560Z,11.98
2022-11-20T17:19:31.220Z,13.65
2022-11-20T17:22:02.119Z,16.73
2022-11-20T17:24:35.424Z,15.90
2022-11-20T17:27:06.706Z,32.22
2022-11-20T17:29:41.932Z,14.85
2022-11-20T17:32:12.762Z,15.73
2022-11-20T17:34:44.299Z,14.55
2022-11-20T17:37:15.365Z,14.38
2022-11-20T17:39:49.363Z,11.02
2022-11-20T17:42:37.086Z,14.82
2022-11-20T17:45:08.620Z,14.88
2022-11-20T17:47:39.705Z,14.70
2022-11-20T17:50:11.764Z,14.02
2022-11-20T17:52:42.641Z,8.95
2022-11-20T17:55:16.063Z,6.13
2022-11-20T17:57:58.444Z,10.20
2022-11-20T18:00:30.884Z,8.88
2022-11-20T18:03:01.432Z,9.25
2022-11-20T18:05:32.235Z,9.73
2022-11-20T18:08:02.713Z,10.25
2022-11-20T18:10:36.151Z,10.32
2022-11-20T18:13:06.838Z,10.85
2022-11-20T18:15:37.631Z,11.52
2022-11-20T18:18:08.368Z,13.57
2022-11-20T18:20:40.098Z,11.93
2022-11-20T18:23:10.825Z,10.45
2022-11-20T18:25:44.817Z,9.93
2022-11-20T18:28:15.287Z,8.93
2022-11-20T18:30:46.208Z,13.10
2022-11-20T18:33:17.436Z,16.13
2022-11-20T18:35:48.179Z,11.77
2022-11-20T18:38:18.873Z,12.43
2022-11-20T18:40:52.090Z,10.48
2022-11-20T18:43:35.015Z,4.88
2022-11-20T18:46:06.666Z,4.95
2022-11-20T18:48:38.851Z,4.68
2022-11-20T18:51:12.199Z,5.00
2022-11-20T18:53:47.117Z,4.95
2022-11-20T18:56:21.417Z,6.13
2022-11-20T18:58:52.075Z,4.93
2022-11-20T19:01:22.739Z,4.70
2022-11-20T19:03:53.643Z,6.70
2022-11-20T19:06:24.286Z,11.52
2022-11-20T19:08:55.453Z,10.00
2022-11-20T19:11:28.657Z,11.63
2022-11-20T19:13:59.181Z,6.35
2022-11-20T19:16:29.813Z,7.10
2022-11-20T19:19:03.571Z,8.90
2022-11-20T19:21:34.406Z,12.75
2022-11-20T19:24:07.031Z,12.50
2022-11-20T19:26:41.349Z,10.35
2022-11-20T19:29:15.629Z,11.35
2022-11-20T19:31:46.733Z,10.23
2022-11-20T19:34:18.264Z,10.75
2022-11-20T19:36:48.743Z,11.15
2022-11-20T19:39:19.905Z,10.88
2022-11-20T19:41:53.498Z,11.98
2022-11-20T19:44:23.994Z,11.60
2022-11-20T19:46:57.269Z,13.15
2022-11-20T19:49:29.022Z,15.05
2022-11-20T19:51:59.805Z,14.88
2022-11-20T19:54:30.567Z,13.70
2022-11-20T19:57:03.851Z,17.05
2022-11-20T19:59:34.301Z,16.80
2022-11-20T20:02:05.293Z,18.15
2022-11-20T20:04:35.893Z,22.05
2022-11-20T20:07:06.835Z,20.73
2022-11-20T20:09:37.459Z,15.77
2022-11-20T20:12:11.244Z,14.35
2022-11-20T20:14:41.776Z,12.93
2022-11-20T20:17:12.334Z,13.10
2022-11-20T20:19:43.244Z,13.50
2022-11-20T20:22:13.733Z,16.73
2022-11-20T20:24:44.408Z,15.23
2022-11-20T20:27:17.770Z,16.65
2022-11-20T20:29:48.316Z,19.13
2022-11-20T20:32:18.904Z,16.20
2022-11-20T20:34:49.541Z,16.25
2022-11-20T20:37:20.111Z,16.10
2022-11-20T20:39:50.895Z,9.25
2022-11-20T20:42:24.082Z,10.13
2022-11-20T20:45:06.843Z,14.38
2022-11-20T20:47:38.632Z,14.02
2022-11-20T20:50:11.818Z,14.52
2022-11-20T20:52:42.671Z,14.63
2022-11-20T20:55:13.921Z,14.07
2022-11-20T20:57:47.398Z,16.38
2022-11-20T21:00:19.250Z,15.48
2022-11-20T21:02:49.769Z,15.73
2022-11-20T21:05:20.430Z,14.52
2022-11-20T21:08:03.245Z,12.05
2022-11-20T21:10:34.929Z,9.10
2022-11-20T21:13:08.198Z,7.78
2022-11-20T21:15:41.867Z,7.28
2022-11-20T21:18:12.286Z,7.05
2022-11-20T21:20:55.113Z,6.53
2022-11-20T21:23:25.693Z,5.97
2022-11-20T21:25:56.415Z,5.38
2022-11-20T21:28:29.513Z,5.13
2022-11-20T21:31:07.396Z,4.32
2022-11-20T21:33:42.082Z,4.95
2022-11-20T21:36:14.523Z,4.80
2022-11-20T21:38:45.107Z,4.35
2022-11-20T21:41:17.362Z,4.28
2022-11-20T21:44:15.983Z,4.50
2022-11-20T21:46:42.663Z,4.72
2022-11-20T21:49:14.801Z,5.30
2022-11-20T21:51:45.774Z,6.22
2022-11-20T21:54:17.731Z,5.30
2022-11-20T21:56:48.331Z,5.75
2022-11-20T21:59:22.357Z,6.75
2022-11-20T22:01:53.337Z,7.35
2022-11-20T22:04:24.757Z,7.72
2022-11-20T22:06:55.413Z,7.30
2022-11-20T22:09:26.301Z,7.32
2022-11-20T22:11:57.111Z,6.85
2022-11-20T22:14:28.536Z,6.75
2022-11-20T22:16:59.202Z,6.32
2022-11-20T22:19:29.819Z,5.70
2022-11-20T22:22:00.344Z,6.28
2022-11-20T22:24:30.958Z,6.80
2022-11-20T22:27:01.512Z,7.47
2022-11-20T22:29:35.041Z,6.93
2022-11-20T22:32:05.629Z,6.60
2022-11-20T22:34:36.355Z,5.75
2022-11-20T22:37:06.882Z,5.05
2022-11-20T22:39:37.355Z,4.45
2022-11-20T22:42:08.052Z,4.72
2022-11-20T22:44:41.294Z,4.88
2022-11-20T22:47:11.875Z,5.35
2022-11-20T22:49:42.356Z,5.03
2022-11-20T22:52:12.860Z,5.40
2022-11-20T22:54:43.460Z,5.10
2022-11-20T22:57:13.975Z,6.45
2022-11-20T22:59:47.164Z,7.00
2022-11-20T23:02:17.664Z,7.18
2022-11-20T23:04:48.037Z,7.15
2022-11-20T23:07:18.604Z,7.05
2022-11-20T23:09:49.149Z,7.45
2022-11-20T23:12:19.646Z,6.70
2022-11-20T23:14:52.675Z,5.60
2022-11-20T23:17:23.169Z,6.05
2022-11-20T23:19:53.733Z,6.15
2022-11-20T23:22:24.164Z,6.53
2022-11-20T23:24:54.737Z,5.50
2022-11-20T23:27:28.340Z,6.25
2022-11-20T23:30:01.652Z,6.70
2022-11-20T23:32:34.541Z,6.47
2022-11-20T23:35:05.034Z,6.05
2022-11-20T23:37:35.402Z,5.93
2022-11-20T23:40:06.156Z,5.20
2022-11-20T23:42:37.166Z,6.60
2022-11-20T23:45:11.540Z,7.45
2022-11-20T23:47:41.988Z,7.97
2022-11-20T23:50:12.690Z,6.78
2022-11-20T23:52:43.199Z,6.47
2022-11-20T23:55:13.672Z,7.25
2022-11-20T23:57:44.113Z,7.80
